createdAt,value
2017-12-15T00:01:02.854Z,22.6
2017-12-15T00:02:10.945Z,22.7
2017-12-15T00:03:19.030Z,22.7
2017-12-15T00:04:27.126Z,22.6
2017-12-15T00:05:35.205Z,22.6
2017-12-15T00:06:43.294Z,22.6
2017-12-15T00:07:51.380Z,22.6
2017-12-15T00:08:59.464Z,22.6
2017-12-15T00:10:07.570Z,22.6
2017-12-15T00:11:15.635Z,22.6
2017-12-15T00:12:23.719Z,22.6
2017-12-15T00:13:31.804Z,22.6
2017-12-15T00:14:39.893Z,22.7
2017-12-15T00:15:47.978Z,22.6
2017-12-15T00:16:56.106Z,22.7
2017-12-15T00:18:04.181Z,22.6
2017-12-15T00:19:12.268Z,22.8
2017-12-15T00:20:20.356Z,22.6
2017-12-15T00:21:28.445Z,22.6
2017-12-15T00:22:36.528Z,22.8
2017-12-15T00:23:44.615Z,22.7
2017-12-15T00:24:52.700Z,22.7
2017-12-15T00:26:00.871Z,22.6
2017-12-15T00:27:08.957Z,22.6
2017-12-15T00:28:17.046Z,22.7
2017-12-15T00:29:25.131Z,22.6
2017-12-15T00:30:33.225Z,22.6
2017-12-15T00:31:41.316Z,22.7
2017-12-15T00:32:49.394Z,22.7
2017-12-15T00:33:57.482Z,22.6
2017-12-15T00:35:05.574Z,22.6
2017-12-15T00:36:13.655Z,22.6
2017-12-15T00:37:21.751Z,22.6
2017-12-15T00:38:29.837Z,22.6
2017-12-15T00:39:37.925Z,22.7
2017-12-15T00:40:46.009Z,22.6
2017-12-15T00:41:54.136Z,22.6
2017-12-15T00:43:02.290Z,22.6
2017-12-15T00:44:10.374Z,22.6
2017-12-15T00:45:18.459Z,22.6
2017-12-15T00:46:26.547Z,22.6
2017-12-15T00:47:34.630Z,22.6
2017-12-15T00:48:42.720Z,22.6
2017-12-15T00:49:50.810Z,22.6
2017-12-15T00:50:58.909Z,22.6
2017-12-15T00:52:06.976Z,22.7
2017-12-15T00:53:15.067Z,22.6
2017-12-15T00:54:23.154Z,22.6
2017-12-15T00:55:31.344Z,22.6
2017-12-15T00:56:39.428Z,22.6
2017-12-15T00:57:47.513Z,22.6
2017-12-15T00:58:55.599Z,22.6
2017-12-15T01:00:03.681Z,22.6
2017-12-15T01:01:11.777Z,22.6
2017-12-15T01:02:19.862Z,22.6
2017-12-15T01:03:27.949Z,22.6
2017-12-15T01:04:36.043Z,22.6
2017-12-15T01:05:44.129Z,22.6
2017-12-15T01:06:52.215Z,22.5
2017-12-15T01:08:00.302Z,22.6
2017-12-15T01:09:08.388Z,22.6
2017-12-15T01:10:16.474Z,22.6
2017-12-15T01:11:24.561Z,22.6
2017-12-15T01:12:32.647Z,22.5
2017-12-15T01:13:40.733Z,22.6
2017-12-15T01:14:48.831Z,22.6
2017-12-15T01:15:56.906Z,22.6
2017-12-15T01:17:04.993Z,22.6
2017-12-15T01:18:13.079Z,22.5
2017-12-15T01:19:21.164Z,22.5
2017-12-15T01:20:29.277Z,22.5
2017-12-15T01:21:37.336Z,22.5
2017-12-15T01:22:45.449Z,22.5
2017-12-15T01:23:53.524Z,22.5
2017-12-15T01:25:01.606Z,22.6
2017-12-15T01:26:09.701Z,22.5
2017-12-15T01:27:17.776Z,22.6
2017-12-15T01:28:25.868Z,22.4
2017-12-15T01:29:33.952Z,22.5
2017-12-15T01:30:42.038Z,22.6
2017-12-15T01:31:50.126Z,22.5
2017-12-15T01:32:58.215Z,22.4
2017-12-15T01:34:06.560Z,22.5
2017-12-15T01:35:14.646Z,22.4
2017-12-15T01:36:22.731Z,22.4
2017-12-15T01:37:30.817Z,22.4
2017-12-15T01:38:38.904Z,22.4
2017-12-15T01:39:46.990Z,22.4
2017-12-15T01:40:55.080Z,22.4
2017-12-15T01:42:03.164Z,22.3
2017-12-15T01:43:11.253Z,22.4
2017-12-15T01:44:19.336Z,22.3
2017-12-15T01:45:27.424Z,22.3
2017-12-15T01:46:35.508Z,22.3
2017-12-15T01:47:43.595Z,22.3
2017-12-15T01:48:51.681Z,22.3
2017-12-15T01:49:59.770Z,22.3
2017-12-15T01:51:07.855Z,22.3
2017-12-15T01:52:15.940Z,22.3
2017-12-15T01:53:24.029Z,22.3
2017-12-15T01:54:32.115Z,22.3
2017-12-15T01:55:40.200Z,22.2
2017-12-15T01:56:48.289Z,22.3
2017-12-15T01:57:56.374Z,22.3
2017-12-15T01:59:04.479Z,22.2
2017-12-15T02:00:12.568Z,22.3
2017-12-15T02:01:20.662Z,22.2
2017-12-15T02:02:28.740Z,22.2
2017-12-15T02:03:36.825Z,22.2
2017-12-15T02:04:44.917Z,22.2
2017-12-15T02:05:53.004Z,22.2
2017-12-15T02:07:01.097Z,22.2
2017-12-15T02:08:09.176Z,22.1
2017-12-15T02:09:17.262Z,22.1
2017-12-15T02:10:25.348Z,22.1
2017-12-15T02:11:33.435Z,22.1
2017-12-15T02:12:41.522Z,22.1
2017-12-15T02:13:49.610Z,22.2
2017-12-15T02:14:57.715Z,22.1
2017-12-15T02:16:05.783Z,22.1
2017-12-15T02:17:13.867Z,22.1
2017-12-15T02:18:21.952Z,22.1
2017-12-15T02:19:30.046Z,22.1
2017-12-15T02:20:38.124Z,22.0
2017-12-15T02:21:46.218Z,22.1
2017-12-15T02:22:54.297Z,21.9
2017-12-15T02:24:02.385Z,22.0
2017-12-15T02:25:10.475Z,22.0
2017-12-15T02:26:18.556Z,21.9
2017-12-15T02:27:26.646Z,21.9
2017-12-15T02:28:34.726Z,22.0
2017-12-15T02:29:42.814Z,21.9
2017-12-15T02:30:50.901Z,21.9
2017-12-15T02:31:58.985Z,21.9
2017-12-15T02:33:07.082Z,21.9
2017-12-15T02:34:15.168Z,21.9
2017-12-15T02:35:23.258Z,21.9
2017-12-15T02:36:31.340Z,21.8
2017-12-15T02:37:39.431Z,21.9
2017-12-15T02:38:47.512Z,21.8
2017-12-15T02:39:56.058Z,21.8
2017-12-15T02:41:03.684Z,21.8
2017-12-15T02:42:11.769Z,21.8
2017-12-15T02:43:19.856Z,21.8
2017-12-15T02:44:27.943Z,21.7
2017-12-15T02:45:36.029Z,21.7
2017-12-15T02:46:44.117Z,21.7
2017-12-15T02:47:52.199Z,21.7
2017-12-15T02:49:00.286Z,21.7
2017-12-15T02:50:08.383Z,21.8
2017-12-15T02:51:16.469Z,21.6
2017-12-15T02:52:24.556Z,21.6
2017-12-15T02:53:32.666Z,21.6
2017-12-15T02:54:40.736Z,21.7
2017-12-15T02:55:48.828Z,21.7
2017-12-15T02:56:56.912Z,21.6
2017-12-15T02:58:05.001Z,21.6
2017-12-15T02:59:13.086Z,21.7
2017-12-15T03:00:21.171Z,21.7
2017-12-15T03:01:29.254Z,21.6
2017-12-15T03:02:37.341Z,21.7
2017-12-15T03:03:45.431Z,21.7
2017-12-15T03:04:53.514Z,21.6
2017-12-15T03:06:01.599Z,21.7
2017-12-15T03:07:09.685Z,21.6
2017-12-15T03:08:17.772Z,21.6
2017-12-15T03:09:25.857Z,21.6
2017-12-15T03:10:33.943Z,21.6
2017-12-15T03:11:42.048Z,21.5
2017-12-15T03:12:50.114Z,21.5
2017-12-15T03:13:58.223Z,21.5
2017-12-15T03:15:06.292Z,21.5
2017-12-15T03:16:14.374Z,21.5
2017-12-15T03:17:22.457Z,21.5
2017-12-15T03:18:30.544Z,21.4
2017-12-15T03:19:38.629Z,21.4
2017-12-15T03:20:46.724Z,21.5
2017-12-15T03:21:54.809Z,21.4
2017-12-15T03:23:02.902Z,21.4
2017-12-15T03:24:10.987Z,21.3
2017-12-15T03:25:19.090Z,21.4
2017-12-15T03:26:27.166Z,21.3
2017-12-15T03:27:35.253Z,21.3
2017-12-15T03:28:43.340Z,21.3
2017-12-15T03:29:51.430Z,21.3
2017-12-15T03:30:59.509Z,21.3
2017-12-15T03:32:07.596Z,21.3
2017-12-15T03:33:15.680Z,21.3
2017-12-15T03:34:23.766Z,21.3
2017-12-15T03:35:31.854Z,21.3
2017-12-15T03:36:39.937Z,21.3
2017-12-15T03:37:48.023Z,21.3
2017-12-15T03:38:56.107Z,21.2
2017-12-15T03:40:04.195Z,21.1
2017-12-15T03:41:12.278Z,21.2
2017-12-15T03:42:20.365Z,21.2
2017-12-15T03:43:28.448Z,21.1
2017-12-15T03:44:36.534Z,21.1
2017-12-15T03:45:44.620Z,21.1
2017-12-15T03:46:52.706Z,21.1
2017-12-15T03:48:00.793Z,21.0
2017-12-15T03:49:08.875Z,21.0
2017-12-15T03:50:16.959Z,21.1
2017-12-15T03:51:25.047Z,21.0
2017-12-15T03:52:33.131Z,21.0
2017-12-15T03:53:41.218Z,21.0
2017-12-15T03:54:49.333Z,21.0
2017-12-15T03:55:57.391Z,20.9
2017-12-15T03:57:05.476Z,21.0
2017-12-15T03:58:13.557Z,21.0
2017-12-15T03:59:21.777Z,21.0
2017-12-15T04:00:29.861Z,20.9
2017-12-15T04:01:37.947Z,20.9
2017-12-15T04:02:46.033Z,21.0
2017-12-15T04:03:54.117Z,20.9
2017-12-15T04:05:02.202Z,20.9
2017-12-15T04:06:10.285Z,20.9
2017-12-15T04:07:18.372Z,20.9
2017-12-15T04:08:26.456Z,20.8
2017-12-15T04:09:34.545Z,20.8
2017-12-15T04:10:42.628Z,20.8
2017-12-15T04:11:50.714Z,20.8
2017-12-15T04:12:58.799Z,20.8
2017-12-15T04:14:06.881Z,20.8
2017-12-15T04:15:14.988Z,20.8
2017-12-15T04:16:23.056Z,20.8
2017-12-15T04:17:31.138Z,20.7
2017-12-15T04:18:39.227Z,20.7
2017-12-15T04:19:47.310Z,20.7
2017-12-15T04:20:55.397Z,20.7
2017-12-15T04:22:03.480Z,20.7
2017-12-15T04:23:11.564Z,20.7
2017-12-15T04:24:19.650Z,20.7
2017-12-15T04:25:27.744Z,20.7
2017-12-15T04:26:35.848Z,20.6
2017-12-15T04:27:43.916Z,20.6
2017-12-15T04:28:51.998Z,20.5
2017-12-15T04:30:00.099Z,20.5
2017-12-15T04:31:08.167Z,20.5
2017-12-15T04:32:16.260Z,20.5
2017-12-15T04:33:24.337Z,20.6
2017-12-15T04:34:32.423Z,20.5
2017-12-15T04:35:40.525Z,20.5
2017-12-15T04:36:48.593Z,20.5
2017-12-15T04:37:56.679Z,20.4
2017-12-15T04:39:04.764Z,20.3
2017-12-15T04:40:12.849Z,20.5
2017-12-15T04:41:20.931Z,20.4
2017-12-15T04:42:29.020Z,20.4
2017-12-15T04:43:37.102Z,20.5
2017-12-15T04:44:45.199Z,20.4
2017-12-15T04:45:53.280Z,20.3
2017-12-15T04:47:01.366Z,20.3
2017-12-15T04:48:09.448Z,20.4
2017-12-15T04:49:17.534Z,20.3
2017-12-15T04:50:25.617Z,20.4
2017-12-15T04:51:33.701Z,20.3
2017-12-15T04:52:41.794Z,20.3
2017-12-15T04:53:49.873Z,20.3
2017-12-15T04:54:57.956Z,20.3
2017-12-15T04:56:06.042Z,20.3
2017-12-15T04:57:14.126Z,20.1
2017-12-15T04:58:22.211Z,20.2
2017-12-15T04:59:30.293Z,20.2
2017-12-15T05:00:38.378Z,20.2
2017-12-15T05:01:46.915Z,20.1
2017-12-15T05:02:54.999Z,20.1
2017-12-15T05:04:03.083Z,20.1
2017-12-15T05:05:11.169Z,20.1
2017-12-15T05:06:19.255Z,20.1
2017-12-15T05:07:27.346Z,20.0
2017-12-15T05:08:35.426Z,20.1
2017-12-15T05:09:43.519Z,20.1
2017-12-15T05:10:51.603Z,20.1
2017-12-15T05:11:59.687Z,20.1
2017-12-15T05:13:07.775Z,20.0
2017-12-15T05:14:15.860Z,20.0
2017-12-15T05:15:23.945Z,20.0
2017-12-15T05:16:32.044Z,19.9
2017-12-15T05:17:40.116Z,19.9
2017-12-15T05:18:48.198Z,19.9
2017-12-15T05:19:56.282Z,19.9
2017-12-15T05:21:04.375Z,19.9
2017-12-15T05:22:12.450Z,20.0
2017-12-15T05:23:20.529Z,20.0
2017-12-15T05:24:28.621Z,19.9
2017-12-15T05:25:36.705Z,19.9
2017-12-15T05:26:44.794Z,19.9
2017-12-15T05:27:52.879Z,19.9
2017-12-15T05:29:00.956Z,19.8
2017-12-15T05:30:09.075Z,19.8
2017-12-15T05:31:17.128Z,19.9
2017-12-15T05:32:25.263Z,19.9
2017-12-15T05:33:33.294Z,19.7
2017-12-15T05:34:41.381Z,19.7
2017-12-15T05:35:49.464Z,19.8
2017-12-15T05:36:57.548Z,19.8
2017-12-15T05:38:05.633Z,19.7
2017-12-15T05:39:13.714Z,19.8
2017-12-15T05:40:21.800Z,19.7
2017-12-15T05:41:29.881Z,19.7
2017-12-15T05:42:37.991Z,19.8
2017-12-15T05:43:46.064Z,19.8
2017-12-15T05:44:54.150Z,19.8
2017-12-15T05:46:02.233Z,19.8
2017-12-15T05:47:10.316Z,19.7
2017-12-15T05:48:18.400Z,19.7
2017-12-15T05:49:26.485Z,19.7
2017-12-15T05:50:34.573Z,19.7
2017-12-15T05:51:42.655Z,19.8
2017-12-15T05:52:50.740Z,19.7
2017-12-15T05:53:58.825Z,19.7
2017-12-15T05:55:06.914Z,19.7
2017-12-15T05:56:14.993Z,19.7
2017-12-15T05:57:23.081Z,19.7
2017-12-15T05:58:31.160Z,19.8
2017-12-15T05:59:39.247Z,19.6
2017-12-15T06:00:47.332Z,19.7
2017-12-15T06:01:55.422Z,19.7
2017-12-15T06:03:03.502Z,19.7
2017-12-15T06:04:11.587Z,19.7
2017-12-15T06:05:19.671Z,19.7
2017-12-15T06:06:27.755Z,19.7
2017-12-15T06:07:35.838Z,19.7
2017-12-15T06:08:43.925Z,19.7
2017-12-15T06:09:52.009Z,19.7
2017-12-15T06:11:00.094Z,19.7
2017-12-15T06:12:08.178Z,19.8
2017-12-15T06:13:16.262Z,19.7
2017-12-15T06:14:24.347Z,19.7
2017-12-15T06:15:32.432Z,19.8
2017-12-15T06:16:40.516Z,19.7
2017-12-15T06:17:48.603Z,19.7
2017-12-15T06:18:56.688Z,19.8
2017-12-15T06:20:04.764Z,19.8
2017-12-15T06:21:12.857Z,19.7
2017-12-15T06:22:20.940Z,19.8
2017-12-15T06:23:29.043Z,19.8
2017-12-15T06:24:37.109Z,19.7
2017-12-15T06:25:45.199Z,19.8
2017-12-15T06:26:53.281Z,19.8
2017-12-15T06:28:01.360Z,19.9
2017-12-15T06:29:09.453Z,19.9
2017-12-15T06:30:17.534Z,19.9
2017-12-15T06:31:25.617Z,19.9
2017-12-15T06:32:33.710Z,19.9
2017-12-15T06:33:41.794Z,19.8
2017-12-15T06:34:49.876Z,19.9
2017-12-15T06:35:57.963Z,19.9
2017-12-15T06:37:06.047Z,19.9
2017-12-15T06:38:14.132Z,20.0
2017-12-15T06:39:22.215Z,19.9
2017-12-15T06:40:30.302Z,19.9
2017-12-15T06:41:38.386Z,19.9
2017-12-15T06:42:46.470Z,19.9
2017-12-15T06:43:54.555Z,20.0
2017-12-15T06:45:03.130Z,20.0
2017-12-15T06:46:10.729Z,20.0
2017-12-15T06:47:18.815Z,20.0
2017-12-15T06:48:26.899Z,20.0
2017-12-15T06:49:34.986Z,20.0
2017-12-15T06:50:43.070Z,20.1
2017-12-15T06:51:51.153Z,20.1
2017-12-15T06:52:59.239Z,20.1
2017-12-15T06:54:07.323Z,20.1
2017-12-15T06:55:15.409Z,20.1
2017-12-15T06:56:23.513Z,20.1
2017-12-15T06:57:31.600Z,20.1
2017-12-15T06:58:39.682Z,20.1
2017-12-15T06:59:47.773Z,20.2
2017-12-15T07:00:55.851Z,20.2
2017-12-15T07:02:03.955Z,20.2
2017-12-15T07:03:12.021Z,20.2
2017-12-15T07:04:20.107Z,20.2
2017-12-15T07:05:28.192Z,20.3
2017-12-15T07:06:36.275Z,20.3
2017-12-15T07:07:44.358Z,20.3
2017-12-15T07:08:52.443Z,20.2
2017-12-15T07:10:00.535Z,20.3
2017-12-15T07:11:08.611Z,20.3
2017-12-15T07:12:16.699Z,20.4
2017-12-15T07:13:24.782Z,20.3
2017-12-15T07:14:32.867Z,20.3
2017-12-15T07:15:40.954Z,20.4
2017-12-15T07:16:49.035Z,20.4
2017-12-15T07:17:57.120Z,20.4
2017-12-15T07:19:05.202Z,20.4
2017-12-15T07:20:13.289Z,20.3
2017-12-15T07:21:21.375Z,20.5
2017-12-15T07:22:29.464Z,20.5
2017-12-15T07:23:37.552Z,20.4
2017-12-15T07:24:45.636Z,20.4
2017-12-15T07:25:53.720Z,20.4
2017-12-15T07:27:01.813Z,20.5
2017-12-15T07:28:09.889Z,20.5
2017-12-15T07:29:17.993Z,20.5
2017-12-15T07:30:26.069Z,20.5
2017-12-15T07:31:34.143Z,20.4
2017-12-15T07:32:42.250Z,20.5
2017-12-15T07:33:50.314Z,20.5
2017-12-15T07:34:58.397Z,20.6
2017-12-15T07:36:06.484Z,20.5
2017-12-15T07:37:14.568Z,20.5
2017-12-15T07:38:22.652Z,20.5
2017-12-15T07:39:30.752Z,20.5
2017-12-15T07:40:38.824Z,20.6
2017-12-15T07:41:46.916Z,20.6
2017-12-15T07:42:55.000Z,20.6
2017-12-15T07:44:03.083Z,20.6
2017-12-15T07:45:11.169Z,20.6
2017-12-15T07:46:19.254Z,20.6
2017-12-15T07:47:27.340Z,20.7
2017-12-15T07:48:35.427Z,20.6
2017-12-15T07:49:43.533Z,20.6
2017-12-15T07:50:51.615Z,20.7
2017-12-15T07:51:59.701Z,20.7
2017-12-15T07:53:07.791Z,20.7
2017-12-15T07:54:15.877Z,20.7
2017-12-15T07:55:23.964Z,20.7
2017-12-15T07:56:32.048Z,20.7
2017-12-15T07:57:40.133Z,20.6
2017-12-15T07:58:48.227Z,20.8
2017-12-15T07:59:56.304Z,20.8
2017-12-15T08:01:04.390Z,20.7
2017-12-15T08:02:12.475Z,20.7
2017-12-15T08:03:20.560Z,20.7
2017-12-15T08:04:28.639Z,20.7
2017-12-15T08:05:36.740Z,20.7
2017-12-15T08:06:44.820Z,20.8
2017-12-15T08:07:52.905Z,20.8
2017-12-15T08:09:00.996Z,20.8
2017-12-15T08:10:09.079Z,20.7
2017-12-15T08:11:17.174Z,20.8
2017-12-15T08:12:25.259Z,20.8
2017-12-15T08:13:33.355Z,20.9
2017-12-15T08:14:41.437Z,20.8
2017-12-15T08:15:49.517Z,20.8
2017-12-15T08:16:57.612Z,20.9
2017-12-15T08:18:05.689Z,20.9
2017-12-15T08:19:13.773Z,20.9
2017-12-15T08:20:21.869Z,20.9
2017-12-15T08:21:29.956Z,20.9
2017-12-15T08:22:38.038Z,20.8
2017-12-15T08:23:46.124Z,20.9
2017-12-15T08:24:54.209Z,20.9
2017-12-15T08:26:02.296Z,20.9
2017-12-15T08:27:10.378Z,20.9
2017-12-15T08:28:18.469Z,20.9
2017-12-15T08:29:26.556Z,20.9
2017-12-15T08:30:34.659Z,20.9
2017-12-15T08:31:42.747Z,20.9
2017-12-15T08:32:50.832Z,20.9
2017-12-15T08:33:58.918Z,20.9
2017-12-15T08:35:07.005Z,20.9
2017-12-15T08:36:15.090Z,20.9
2017-12-15T08:37:23.173Z,20.9
2017-12-15T08:38:31.259Z,20.9
2017-12-15T08:39:39.342Z,20.9
2017-12-15T08:40:47.431Z,20.9
2017-12-15T08:41:55.527Z,20.9
2017-12-15T08:43:03.612Z,20.9
2017-12-15T08:44:11.699Z,20.9
2017-12-15T08:45:19.789Z,20.9
2017-12-15T08:46:27.873Z,20.9
2017-12-15T08:47:35.960Z,20.9
2017-12-15T08:48:44.049Z,20.9
2017-12-15T08:49:52.129Z,20.9
2017-12-15T08:51:00.216Z,20.9
2017-12-15T08:52:08.302Z,20.9
2017-12-15T08:53:16.387Z,21.0
2017-12-15T08:54:24.479Z,20.9
2017-12-15T08:55:32.557Z,20.9
2017-12-15T08:56:40.640Z,20.9
2017-12-15T08:57:48.728Z,20.9
2017-12-15T08:58:56.812Z,20.9
2017-12-15T09:00:04.893Z,20.9
2017-12-15T09:01:12.984Z,20.9
2017-12-15T09:02:21.069Z,20.9
2017-12-15T09:03:29.172Z,21.0
2017-12-15T09:04:37.243Z,20.9
2017-12-15T09:05:45.325Z,20.9
2017-12-15T09:06:53.410Z,20.9
2017-12-15T09:08:01.501Z,20.9
2017-12-15T09:09:09.710Z,20.9
2017-12-15T09:10:17.796Z,20.9
2017-12-15T09:11:25.880Z,20.9
2017-12-15T09:12:33.964Z,20.9
2017-12-15T09:13:42.054Z,20.9
2017-12-15T09:14:50.135Z,20.9
2017-12-15T09:15:58.224Z,20.9
2017-12-15T09:17:06.309Z,20.9
2017-12-15T09:18:14.394Z,20.9
2017-12-15T09:19:22.477Z,21.0
2017-12-15T09:20:30.562Z,20.9
2017-12-15T09:21:38.652Z,20.9
2017-12-15T09:22:46.735Z,21.0
2017-12-15T09:23:54.818Z,20.9
2017-12-15T09:25:02.905Z,21.0
2017-12-15T09:26:10.988Z,21.0
2017-12-15T09:27:19.082Z,20.9
2017-12-15T09:28:27.161Z,20.9
2017-12-15T09:29:35.246Z,20.9
2017-12-15T09:30:43.332Z,20.9
2017-12-15T09:31:51.420Z,20.9
2017-12-15T09:32:59.503Z,20.9
2017-12-15T09:34:07.612Z,20.9
2017-12-15T09:35:15.699Z,20.9
2017-12-15T09:36:23.768Z,20.9
2017-12-15T09:37:31.851Z,20.9
2017-12-15T09:38:39.936Z,20.9
2017-12-15T09:39:48.021Z,20.9
2017-12-15T09:40:56.110Z,20.9
2017-12-15T09:42:04.193Z,20.8
2017-12-15T09:43:12.279Z,20.8
2017-12-15T09:44:20.372Z,20.8
2017-12-15T09:45:28.458Z,20.9
2017-12-15T09:46:36.542Z,20.8
2017-12-15T09:47:44.630Z,20.9
2017-12-15T09:48:52.713Z,20.8
2017-12-15T09:50:02.501Z,20.9
2017-12-15T09:51:08.886Z,20.9
2017-12-15T09:52:16.965Z,20.8
2017-12-15T09:53:25.053Z,20.8
2017-12-15T09:54:33.139Z,20.8
2017-12-15T09:55:41.225Z,20.8
2017-12-15T09:56:49.314Z,20.8
2017-12-15T09:57:57.394Z,20.9
2017-12-15T09:59:05.542Z,20.9
2017-12-15T10:00:13.565Z,20.9
2017-12-15T10:01:21.649Z,20.8
2017-12-15T10:02:29.818Z,20.8
2017-12-15T10:03:37.903Z,20.8
2017-12-15T10:04:45.989Z,20.8
2017-12-15T10:05:54.075Z,20.9
2017-12-15T10:07:02.164Z,20.9
2017-12-15T10:08:10.250Z,20.8
2017-12-15T10:09:18.332Z,20.8
2017-12-15T10:10:26.420Z,20.8
2017-12-15T10:11:34.500Z,20.8
2017-12-15T10:12:42.588Z,20.8
2017-12-15T10:13:50.675Z,20.7
2017-12-15T10:14:58.757Z,20.7
2017-12-15T10:16:06.843Z,20.7
2017-12-15T10:17:14.939Z,20.8
2017-12-15T10:18:23.024Z,20.7
2017-12-15T10:19:31.107Z,20.7
2017-12-15T10:20:39.222Z,20.7
2017-12-15T10:21:47.291Z,20.7
2017-12-15T10:22:55.375Z,20.7
2017-12-15T10:24:03.469Z,20.7
2017-12-15T10:25:11.546Z,20.7
2017-12-15T10:26:19.628Z,20.7
2017-12-15T10:27:27.732Z,20.8
2017-12-15T10:28:35.800Z,20.6
2017-12-15T10:29:43.887Z,20.7
2017-12-15T10:30:51.988Z,20.7
2017-12-15T10:32:00.066Z,20.7
2017-12-15T10:33:08.152Z,20.6
2017-12-15T10:34:16.244Z,20.6
2017-12-15T10:35:24.329Z,20.6
2017-12-15T10:36:32.414Z,20.6
2017-12-15T10:37:40.501Z,20.6
2017-12-15T10:38:48.584Z,20.6
2017-12-15T10:39:56.672Z,20.6
2017-12-15T10:41:04.819Z,20.6
2017-12-15T10:42:12.905Z,20.6
2017-12-15T10:43:20.990Z,20.5
2017-12-15T10:44:29.076Z,20.6
2017-12-15T10:45:37.166Z,20.5
2017-12-15T10:46:45.245Z,20.6
2017-12-15T10:47:53.330Z,20.5
2017-12-15T10:49:01.417Z,20.5
2017-12-15T10:50:09.506Z,20.5
2017-12-15T10:51:17.587Z,20.5
2017-12-15T10:52:25.670Z,20.5
2017-12-15T10:53:33.763Z,20.5
2017-12-15T10:54:41.840Z,20.5
2017-12-15T10:55:49.927Z,20.4
2017-12-15T10:56:58.012Z,20.4
2017-12-15T10:58:06.104Z,20.4
2017-12-15T10:59:14.182Z,20.5
2017-12-15T11:00:22.265Z,20.5
2017-12-15T11:01:30.352Z,20.5
2017-12-15T11:02:38.438Z,20.5
2017-12-15T11:03:46.523Z,20.3
2017-12-15T11:04:54.608Z,20.4
2017-12-15T11:06:02.691Z,20.5
2017-12-15T11:07:10.786Z,20.5
2017-12-15T11:08:18.890Z,20.4
2017-12-15T11:09:26.957Z,20.4
2017-12-15T11:10:35.043Z,20.5
2017-12-15T11:11:43.128Z,20.4
2017-12-15T11:12:51.217Z,20.3
2017-12-15T11:13:59.298Z,20.3
2017-12-15T11:15:07.380Z,20.4
2017-12-15T11:16:15.474Z,20.4
2017-12-15T11:17:23.552Z,20.3
2017-12-15T11:18:31.634Z,20.4
2017-12-15T11:19:39.722Z,20.2
2017-12-15T11:20:47.806Z,20.4
2017-12-15T11:21:55.892Z,20.3
2017-12-15T11:23:03.980Z,20.3
2017-12-15T11:24:12.064Z,20.2
2017-12-15T11:25:20.150Z,20.2
2017-12-15T11:26:28.231Z,20.3
2017-12-15T11:27:36.316Z,20.2
2017-12-15T11:28:44.401Z,20.3
2017-12-15T11:29:52.487Z,20.2
2017-12-15T11:31:00.574Z,20.2
2017-12-15T11:32:08.664Z,20.2
2017-12-15T11:33:16.817Z,20.2
2017-12-15T11:34:25.286Z,20.2
2017-12-15T11:35:32.989Z,20.2
2017-12-15T11:36:41.070Z,20.3
2017-12-15T11:37:49.154Z,20.2
2017-12-15T11:38:57.240Z,20.2
2017-12-15T11:40:05.332Z,20.2
2017-12-15T11:41:13.415Z,20.2
2017-12-15T11:42:21.506Z,20.1
2017-12-15T11:43:29.592Z,20.1
2017-12-15T11:44:37.680Z,20.1
2017-12-15T11:45:45.763Z,20.2
2017-12-15T11:46:53.846Z,20.1
2017-12-15T11:48:01.932Z,20.1
2017-12-15T11:49:10.016Z,20.1
2017-12-15T11:50:18.103Z,20.1
2017-12-15T11:51:26.187Z,20.1
2017-12-15T11:52:34.272Z,20.1
2017-12-15T11:53:42.356Z,20.0
2017-12-15T11:54:50.442Z,20.1
2017-12-15T11:55:58.533Z,20.1
2017-12-15T11:57:06.611Z,20.0
2017-12-15T11:58:14.772Z,20.0
2017-12-15T11:59:22.797Z,20.0
2017-12-15T12:00:30.872Z,20.0
2017-12-15T12:01:38.956Z,20.0
2017-12-15T12:02:47.035Z,20.0
2017-12-15T12:03:55.129Z,20.0
2017-12-15T12:05:03.290Z,20.0
2017-12-15T12:06:11.310Z,19.9
2017-12-15T12:07:19.402Z,19.9
2017-12-15T12:08:27.483Z,20.0
2017-12-15T12:09:35.569Z,19.9
2017-12-15T12:10:43.660Z,19.9
2017-12-15T12:11:51.737Z,19.9
2017-12-15T12:12:59.827Z,19.9
2017-12-15T12:14:08.349Z,19.9
2017-12-15T12:15:16.435Z,19.9
2017-12-15T12:16:24.531Z,19.9
2017-12-15T12:17:32.736Z,19.9
2017-12-15T12:18:40.823Z,19.9
2017-12-15T12:19:48.908Z,19.9
2017-12-15T12:20:56.999Z,19.9
2017-12-15T12:22:05.082Z,19.8
2017-12-15T12:23:13.191Z,19.8
2017-12-15T12:24:21.278Z,19.9
2017-12-15T12:25:29.371Z,19.9
2017-12-15T12:26:37.446Z,19.8
2017-12-15T12:27:45.551Z,19.9
2017-12-15T12:28:53.628Z,19.8
2017-12-15T12:30:01.707Z,19.7
2017-12-15T12:31:09.802Z,19.8
2017-12-15T12:32:17.893Z,19.7
2017-12-15T12:33:25.977Z,19.7
2017-12-15T12:34:34.066Z,19.7
2017-12-15T12:35:42.151Z,19.8
2017-12-15T12:36:50.238Z,19.9
2017-12-15T12:37:58.324Z,19.7
2017-12-15T12:39:06.432Z,19.7
2017-12-15T12:40:14.494Z,19.9
2017-12-15T12:41:22.578Z,19.8
2017-12-15T12:42:30.663Z,19.8
2017-12-15T12:43:38.747Z,19.8
2017-12-15T12:44:46.834Z,19.7
2017-12-15T12:45:55.189Z,19.9
2017-12-15T12:47:03.287Z,19.8
2017-12-15T12:48:11.356Z,19.9
2017-12-15T12:49:19.442Z,19.8
2017-12-15T12:50:27.525Z,19.8
2017-12-15T12:51:35.610Z,19.8
2017-12-15T12:52:43.696Z,19.9
2017-12-15T12:53:51.785Z,19.9
2017-12-15T12:54:59.865Z,19.9
2017-12-15T12:56:07.948Z,19.9
2017-12-15T12:57:16.040Z,19.9
2017-12-15T12:58:24.126Z,19.8
2017-12-15T12:59:32.208Z,20.0
2017-12-15T13:00:40.294Z,19.9
2017-12-15T13:01:48.387Z,19.9
2017-12-15T13:02:56.473Z,19.9
2017-12-15T13:04:04.557Z,19.9
2017-12-15T13:05:12.649Z,19.9
2017-12-15T13:06:20.733Z,19.9
2017-12-15T13:07:28.817Z,19.9
2017-12-15T13:08:36.910Z,19.9
2017-12-15T13:09:44.991Z,20.0
2017-12-15T13:10:53.078Z,20.0
2017-12-15T13:12:01.170Z,20.0
2017-12-15T13:13:09.251Z,20.0
2017-12-15T13:14:17.340Z,19.9
2017-12-15T13:15:25.429Z,19.9
2017-12-15T13:16:33.513Z,19.9
2017-12-15T13:17:41.606Z,20.0
2017-12-15T13:18:49.692Z,20.0
2017-12-15T13:19:57.790Z,20.0
2017-12-15T13:21:05.949Z,20.0
2017-12-15T13:22:14.029Z,20.1
2017-12-15T13:23:22.227Z,20.1
2017-12-15T13:24:30.201Z,20.0
2017-12-15T13:25:38.298Z,20.0
2017-12-15T13:26:46.386Z,20.1
2017-12-15T13:27:54.473Z,20.1
2017-12-15T13:29:02.554Z,20.1
2017-12-15T13:30:10.633Z,20.1
2017-12-15T13:31:18.758Z,20.1
2017-12-15T13:32:26.828Z,20.2
2017-12-15T13:33:34.891Z,20.2
2017-12-15T13:34:42.983Z,20.2
2017-12-15T13:35:51.071Z,20.2
2017-12-15T13:36:59.161Z,20.1
2017-12-15T13:38:07.265Z,20.3
2017-12-15T13:39:15.332Z,20.2
2017-12-15T13:40:23.421Z,20.2
2017-12-15T13:41:31.507Z,20.2
2017-12-15T13:42:39.602Z,20.2
2017-12-15T13:43:47.697Z,20.2
2017-12-15T13:44:55.794Z,20.3
2017-12-15T13:46:03.880Z,20.3
2017-12-15T13:47:11.959Z,20.3
2017-12-15T13:48:20.044Z,20.3
2017-12-15T13:49:28.282Z,20.4
2017-12-15T13:50:36.213Z,20.3
2017-12-15T13:51:44.299Z,20.3
2017-12-15T13:52:52.390Z,20.3
2017-12-15T13:54:00.473Z,20.3
2017-12-15T13:55:08.556Z,20.5
2017-12-15T13:56:16.664Z,20.5
2017-12-15T13:57:24.729Z,20.6
2017-12-15T13:58:32.812Z,20.3
2017-12-15T13:59:40.901Z,20.5
2017-12-15T14:00:48.994Z,20.4
2017-12-15T14:01:57.084Z,20.5
2017-12-15T14:03:05.177Z,20.6
2017-12-15T14:04:13.243Z,20.5
2017-12-15T14:05:21.651Z,20.5
2017-12-15T14:06:29.417Z,20.5
2017-12-15T14:07:37.504Z,20.6
2017-12-15T14:08:45.587Z,20.6
2017-12-15T14:09:53.699Z,20.6
2017-12-15T14:11:01.765Z,20.8
2017-12-15T14:12:09.855Z,20.7
2017-12-15T14:13:17.946Z,20.7
2017-12-15T14:14:26.038Z,20.7
2017-12-15T14:15:34.130Z,20.7
2017-12-15T14:16:42.246Z,20.8
2017-12-15T14:17:50.304Z,20.8
2017-12-15T14:18:58.391Z,20.8
2017-12-15T14:20:06.475Z,20.9
2017-12-15T14:21:14.559Z,20.9
2017-12-15T14:22:22.650Z,20.9
2017-12-15T14:23:30.742Z,20.9
2017-12-15T14:24:38.822Z,20.9
2017-12-15T14:25:46.910Z,20.9
2017-12-15T14:26:55.275Z,20.9
2017-12-15T14:28:03.375Z,21.0
2017-12-15T14:29:11.443Z,21.0
2017-12-15T14:30:19.610Z,21.0
2017-12-15T14:31:27.616Z,21.0
2017-12-15T14:32:35.697Z,21.0
2017-12-15T14:33:43.793Z,21.1
2017-12-15T14:34:51.874Z,21.1
2017-12-15T14:35:59.954Z,21.0
2017-12-15T14:37:08.080Z,21.2
2017-12-15T14:38:16.150Z,21.2
2017-12-15T14:39:24.242Z,21.2
2017-12-15T14:40:32.333Z,21.2
2017-12-15T14:41:40.422Z,21.2
2017-12-15T14:42:48.509Z,21.2
2017-12-15T14:43:56.733Z,21.2
2017-12-15T14:45:04.762Z,21.2
2017-12-15T14:46:12.848Z,21.3
2017-12-15T14:47:20.945Z,21.3
2017-12-15T14:48:29.033Z,21.3
2017-12-15T14:49:37.125Z,21.3
2017-12-15T14:50:45.212Z,21.3
2017-12-15T14:51:53.303Z,21.3
2017-12-15T14:53:01.383Z,21.3
2017-12-15T14:54:09.465Z,21.4
2017-12-15T14:55:17.554Z,21.4
2017-12-15T14:56:25.656Z,21.4
2017-12-15T14:57:33.737Z,21.4
2017-12-15T14:58:41.827Z,21.5
2017-12-15T14:59:49.913Z,21.4
2017-12-15T15:00:57.998Z,21.5
2017-12-15T15:02:06.089Z,21.5
2017-12-15T15:03:14.188Z,21.4
2017-12-15T15:04:22.278Z,21.6
2017-12-15T15:05:30.364Z,21.5
2017-12-15T15:06:38.447Z,21.6